CheckWX is a tool to help pilots better visualize weather data.  It is not intended as a substitute for an official pre-flight weather briefing.

04:02:11 UTC

KGVT METAR
Majors Airport
Greenville, Texas, USA
Current

7 mins ago

KGVT 270355Z AUTO 13005KT 10SM SCT050 25/21 A2996 RMK AO2
Observed
May-27 @ 03:55 UTC
Wind
  • 130° at 5 KTS
Visibility
10 SM
Flight Rules
VFR
Cloud Levels
  • Scattered at 5,000' AGL
Temperature
25°C / 77°F
Dewpoint
21°C / 70°F
Humidity
79%
Altimeter
29.96" Hg
Pressure
1014.52 hPa
Previous

27 mins ago

KGVT 270335Z AUTO 14004KT 10SM CLR 26/21 A2996 RMK AO2
Observed
May-27 @ 03:35 UTC
Wind
  • 140° at 4 KTS
Visibility
10 SM
Flight Rules
VFR
Cloud Levels
  • Clear skies
Temperature
26°C / 79°F
Dewpoint
21°C / 70°F
Humidity
74%
Altimeter
29.96" Hg
Pressure
1014.52 hPa
Previous

47 mins ago

KGVT 270315Z AUTO 14006KT 10SM CLR 26/21 A2996 RMK AO2
Observed
May-27 @ 03:15 UTC
Wind
  • 140° at 6 KTS
Visibility
10 SM
Flight Rules
VFR
Cloud Levels
  • Clear skies
Temperature
26°C / 79°F
Dewpoint
21°C / 70°F
Humidity
74%
Altimeter
29.96" Hg
Pressure
1014.52 hPa